createdAt,value
2018-04-08T00:00:48.697Z,8.30
2018-04-08T00:03:16.517Z,9.00
2018-04-08T00:05:44.156Z,8.67
2018-04-08T00:08:11.694Z,8.37
2018-04-08T00:10:39.219Z,9.77
2018-04-08T00:13:06.753Z,11.93
2018-04-08T00:15:34.515Z,8.60
2018-04-08T00:18:02.407Z,10.27
2018-04-08T00:20:30.036Z,9.10
2018-04-08T00:22:57.724Z,9.73
2018-04-08T00:25:25.662Z,8.47
2018-04-08T00:27:53.197Z,9.27
2018-04-08T00:30:20.797Z,10.10
2018-04-08T00:32:48.448Z,8.87
2018-04-08T00:35:16.119Z,8.40
2018-04-08T00:37:43.676Z,9.10
2018-04-08T00:40:11.439Z,10.63
2018-04-08T00:42:40.045Z,9.13
2018-04-08T00:45:08.044Z,8.83
2018-04-08T00:47:35.698Z,8.87
2018-04-08T00:50:03.313Z,9.10
2018-04-08T00:52:30.907Z,8.93
2018-04-08T00:54:58.415Z,8.60
2018-04-08T00:57:26.816Z,9.77
2018-04-08T00:59:54.448Z,8.57
2018-04-08T01:02:22.307Z,9.60
2018-04-08T01:04:49.820Z,10.40
2018-04-08T01:07:17.681Z,8.70
2018-04-08T01:09:45.928Z,8.27
2018-04-08T01:12:13.439Z,8.13
2018-04-08T01:14:40.942Z,10.70
2018-04-08T01:17:09.202Z,9.30
2018-04-08T01:19:37.083Z,11.67
2018-04-08T01:22:04.600Z,9.27
2018-04-08T01:24:32.672Z,9.73
2018-04-08T01:27:00.191Z,8.83
2018-04-08T01:29:27.952Z,8.90
2018-04-08T01:31:55.641Z,9.67
2018-04-08T01:34:23.199Z,9.37
2018-04-08T01:36:50.706Z,10.20
2018-04-08T01:39:18.210Z,9.73
2018-04-08T01:41:45.876Z,10.37
2018-04-08T01:44:13.586Z,9.33
2018-04-08T01:46:41.125Z,9.67
2018-04-08T01:49:08.724Z,9.20
2018-04-08T01:51:36.994Z,8.77
2018-04-08T01:54:05.305Z,8.77
2018-04-08T01:56:32.823Z,9.97
2018-04-08T01:59:00.574Z,9.87
2018-04-08T02:01:28.300Z,9.47
2018-04-08T02:03:57.604Z,8.60
2018-04-08T02:06:25.748Z,9.17
2018-04-08T02:08:53.540Z,9.47
2018-04-08T02:11:21.308Z,8.73
2018-04-08T02:13:48.897Z,8.70
2018-04-08T02:16:16.430Z,7.87
2018-04-08T02:18:43.943Z,8.53
2018-04-08T02:21:12.736Z,8.57
2018-04-08T02:23:41.029Z,8.57
2018-04-08T02:26:08.920Z,9.67
2018-04-08T02:28:36.608Z,8.53
2018-04-08T02:31:04.171Z,8.67
2018-04-08T02:33:31.665Z,9.03
2018-04-08T02:35:59.936Z,10.20
2018-04-08T02:38:27.438Z,9.97
2018-04-08T02:40:54.927Z,7.83
2018-04-08T02:43:22.761Z,8.40
2018-04-08T02:45:50.303Z,10.00
2018-04-08T02:48:17.956Z,8.73
2018-04-08T02:50:45.478Z,9.33
2018-04-08T02:53:14.031Z,14.37
2018-04-08T02:55:41.565Z,8.57
2018-04-08T02:58:10.066Z,8.57
2018-04-08T03:00:37.760Z,7.60
2018-04-08T03:03:05.250Z,10.27
2018-04-08T03:05:33.533Z,9.63
2018-04-08T03:08:02.103Z,9.27
2018-04-08T03:10:29.712Z,8.27
2018-04-08T03:12:57.313Z,7.83
2018-04-08T03:15:27.499Z,8.30
2018-04-08T03:17:55.534Z,8.03
2018-04-08T03:20:23.075Z,9.23
2018-04-08T03:22:50.740Z,9.13
2018-04-08T03:25:18.450Z,10.90
2018-04-08T03:27:46.212Z,9.50
2018-04-08T03:30:14.358Z,11.57
2018-04-08T03:32:42.632Z,11.37
2018-04-08T03:35:10.991Z,9.67
2018-04-08T03:37:38.476Z,9.03
2018-04-08T03:40:06.759Z,8.70
2018-04-08T03:42:35.134Z,9.43
2018-04-08T03:45:03.446Z,9.67
2018-04-08T03:47:30.958Z,9.50
2018-04-08T03:49:58.507Z,10.47
2018-04-08T03:52:26.008Z,10.40
2018-04-08T03:54:53.588Z,11.40
2018-04-08T03:57:21.090Z,8.33
2018-04-08T03:59:48.694Z,12.77
2018-04-08T04:02:16.196Z,8.70
2018-04-08T04:04:43.701Z,10.63
2018-04-08T04:07:11.212Z,11.50
2018-04-08T04:09:39.583Z,13.73
2018-04-08T04:12:07.088Z,10.17
2018-04-08T04:14:35.032Z,10.93
2018-04-08T04:17:02.723Z,10.70
2018-04-08T04:19:41.954Z,11.17
2018-04-08T04:22:21.354Z,10.00
2018-04-08T04:25:00.754Z,12.13
2018-04-08T04:27:28.318Z,10.80
2018-04-08T04:29:55.812Z,10.73
2018-04-08T04:32:23.400Z,11.13
2018-04-08T04:34:50.908Z,11.17
2018-04-08T04:37:18.851Z,11.13
2018-04-08T04:39:46.348Z,10.13
2018-04-08T04:42:13.908Z,11.40
2018-04-08T04:44:41.454Z,10.53
2018-04-08T04:47:09.038Z,11.77
2018-04-08T04:49:36.560Z,11.83
2018-04-08T04:52:04.361Z,10.27
2018-04-08T04:54:31.889Z,10.63
2018-04-08T04:56:59.388Z,10.83
2018-04-08T04:59:26.913Z,10.83
2018-04-08T05:01:54.702Z,12.50
2018-04-08T05:04:22.298Z,12.50
2018-04-08T05:06:49.828Z,11.23
2018-04-08T05:09:17.660Z,12.83
2018-04-08T05:11:45.177Z,10.60
2018-04-08T05:14:12.739Z,11.03
2018-04-08T05:16:41.855Z,10.33
2018-04-08T05:19:09.350Z,11.67
2018-04-08T05:21:36.904Z,11.03
2018-04-08T05:24:04.468Z,10.90
2018-04-08T05:26:32.758Z,10.43
2018-04-08T05:29:00.251Z,11.10
2018-04-08T05:31:27.796Z,11.57
2018-04-08T05:33:56.089Z,11.50
2018-04-08T05:36:23.620Z,12.30
2018-04-08T05:38:51.127Z,11.07
2018-04-08T05:41:18.653Z,11.00
2018-04-08T05:43:46.971Z,17.17
2018-04-08T05:46:15.037Z,11.53
2018-04-08T05:48:42.544Z,11.50
2018-04-08T05:51:10.207Z,11.37
2018-04-08T05:53:37.880Z,11.70
2018-04-08T05:56:06.175Z,11.83
2018-04-08T05:58:33.711Z,11.93
2018-04-08T06:01:01.298Z,11.27
2018-04-08T06:03:29.110Z,11.77
2018-04-08T06:05:56.952Z,11.23
2018-04-08T06:08:24.605Z,11.70
2018-04-08T06:10:52.147Z,11.00
2018-04-08T06:13:19.763Z,11.47
2018-04-08T06:15:47.507Z,11.17
2018-04-08T06:18:15.015Z,10.87
2018-04-08T06:20:43.349Z,10.60
2018-04-08T06:23:11.063Z,10.18
2018-04-08T06:25:39.346Z,10.60
2018-04-08T06:28:07.663Z,10.93
2018-04-08T06:30:35.325Z,9.55
2018-04-08T06:33:05.135Z,10.38
2018-04-08T06:35:32.780Z,10.40
2018-04-08T06:38:00.413Z,9.82
2018-04-08T06:40:28.705Z,10.43
2018-04-08T06:42:56.235Z,10.43
2018-04-08T06:45:24.041Z,9.80
2018-04-08T06:47:51.540Z,9.75
2018-04-08T06:50:19.194Z,10.68
2018-04-08T06:52:46.838Z,10.15
2018-04-08T06:55:14.400Z,10.68
2018-04-08T06:57:41.916Z,8.95
2018-04-08T07:00:10.048Z,10.88
2018-04-08T07:02:37.713Z,9.32
2018-04-08T07:05:05.222Z,9.27
2018-04-08T07:07:33.010Z,10.38
2018-04-08T07:10:00.537Z,9.63
2018-04-08T07:12:28.811Z,9.50
2018-04-08T07:14:56.345Z,9.82
2018-04-08T07:17:23.969Z,9.32
2018-04-08T07:19:51.555Z,8.48
2018-04-08T07:22:19.098Z,9.00
2018-04-08T07:24:46.622Z,9.35
2018-04-08T07:27:14.142Z,9.43
2018-04-08T07:29:41.815Z,9.30
2018-04-08T07:32:09.592Z,8.82
2018-04-08T07:34:37.203Z,9.00
2018-04-08T07:37:04.796Z,8.57
2018-04-08T07:39:32.320Z,7.87
2018-04-08T07:42:00.629Z,8.93
2018-04-08T07:44:28.177Z,9.18
2018-04-08T07:46:56.597Z,9.13
2018-04-08T07:49:24.120Z,9.07
2018-04-08T07:51:52.381Z,8.80
2018-04-08T07:54:19.898Z,7.85
2018-04-08T07:56:50.182Z,8.93
2018-04-08T07:59:17.846Z,7.95
2018-04-08T08:01:45.457Z,9.20
2018-04-08T08:04:13.120Z,8.95
2018-04-08T08:06:41.444Z,8.30
2018-04-08T08:09:10.046Z,10.10
2018-04-08T08:11:37.976Z,9.50
2018-04-08T08:14:05.489Z,9.10
2018-04-08T08:16:33.446Z,9.47
2018-04-08T08:19:00.968Z,9.30
2018-04-08T08:21:28.486Z,9.30
2018-04-08T08:23:56.174Z,9.63
2018-04-08T08:26:23.674Z,9.30
2018-04-08T08:28:51.182Z,9.30
2018-04-08T08:31:19.467Z,10.53
2018-04-08T08:33:47.079Z,9.13
2018-04-08T08:36:14.791Z,10.43
2018-04-08T08:38:43.292Z,9.77
2018-04-08T08:41:10.801Z,8.83
2018-04-08T08:43:38.506Z,9.77
2018-04-08T08:46:05.995Z,10.03
2018-04-08T08:48:33.499Z,10.23
2018-04-08T08:51:01.906Z,9.80
2018-04-08T08:53:29.429Z,9.67
2018-04-08T08:55:56.962Z,10.10
2018-04-08T08:58:24.491Z,9.90
2018-04-08T09:00:52.159Z,9.50
2018-04-08T09:03:20.035Z,9.67
2018-04-08T09:05:47.565Z,9.27
2018-04-08T09:08:15.125Z,9.33
2018-04-08T09:10:42.802Z,9.67
2018-04-08T09:13:10.516Z,10.07
2018-04-08T09:15:38.153Z,10.00
2018-04-08T09:18:05.696Z,9.43
2018-04-08T09:20:34.475Z,9.87
2018-04-08T09:23:07.922Z,8.20
2018-04-08T09:25:35.622Z,9.03
2018-04-08T09:28:03.132Z,8.97
2018-04-08T09:30:30.660Z,9.70
2018-04-08T09:32:58.155Z,9.47
2018-04-08T09:35:25.680Z,10.00
2018-04-08T09:37:53.346Z,9.33
2018-04-08T09:40:20.899Z,8.57
2018-04-08T09:42:48.628Z,8.90
2018-04-08T09:45:16.939Z,8.87
2018-04-08T09:47:44.567Z,9.30
2018-04-08T09:50:12.960Z,8.57
2018-04-08T09:52:40.476Z,8.50
2018-04-08T09:55:08.036Z,8.23
2018-04-08T09:57:36.194Z,8.13
2018-04-08T10:00:03.733Z,8.67
2018-04-08T10:02:41.238Z,8.33
2018-04-08T10:05:08.896Z,7.87
2018-04-08T10:07:36.485Z,8.87
2018-04-08T10:10:04.057Z,8.00
2018-04-08T10:12:31.574Z,7.80
2018-04-08T10:14:59.153Z,8.53
2018-04-08T10:17:26.807Z,8.17
2018-04-08T10:19:54.496Z,8.20
2018-04-08T10:22:24.122Z,7.43
2018-04-08T10:24:52.298Z,7.80
2018-04-08T10:27:20.183Z,9.77
2018-04-08T10:29:50.026Z,7.27
2018-04-08T10:32:18.206Z,8.40
2018-04-08T10:34:46.032Z,7.70
2018-04-08T10:37:13.713Z,6.27
2018-04-08T10:39:41.278Z,7.80
2018-04-08T10:42:08.972Z,8.43
2018-04-08T10:44:36.547Z,7.53
2018-04-08T10:47:04.174Z,8.30
2018-04-08T10:49:31.726Z,8.27
2018-04-08T10:51:59.502Z,7.80
2018-04-08T10:54:27.090Z,7.70
2018-04-08T10:56:55.374Z,8.47
2018-04-08T10:59:23.086Z,8.30
2018-04-08T11:01:50.624Z,7.33
2018-04-08T11:04:18.280Z,8.13
2018-04-08T11:06:46.604Z,7.37
2018-04-08T11:09:14.269Z,7.67
2018-04-08T11:11:41.879Z,7.93
2018-04-08T11:14:10.181Z,7.00
2018-04-08T11:16:37.895Z,7.33
2018-04-08T11:19:05.450Z,8.10
2018-04-08T11:21:33.234Z,7.93
2018-04-08T11:24:01.671Z,7.67
2018-04-08T11:26:29.188Z,7.33
2018-04-08T11:28:57.597Z,5.03
2018-04-08T11:31:25.158Z,5.47
2018-04-08T11:33:52.924Z,8.87
2018-04-08T11:36:20.616Z,6.17
2018-04-08T11:38:48.699Z,7.00
2018-04-08T11:41:17.432Z,6.83
2018-04-08T11:43:44.961Z,6.50
2018-04-08T11:46:12.639Z,6.80
2018-04-08T11:48:40.288Z,6.63
2018-04-08T11:51:08.566Z,6.27
2018-04-08T11:53:36.100Z,6.60
2018-04-08T11:56:03.726Z,6.37
2018-04-08T11:58:31.695Z,6.53
2018-04-08T12:00:59.357Z,6.37
2018-04-08T12:03:27.753Z,5.47
2018-04-08T12:05:55.289Z,6.70
2018-04-08T12:08:23.361Z,6.60
2018-04-08T12:10:50.945Z,7.03
2018-04-08T12:13:18.486Z,6.60
2018-04-08T12:15:46.157Z,7.23
2018-04-08T12:18:13.727Z,7.07
2018-04-08T12:20:41.278Z,7.17
2018-04-08T12:23:08.803Z,7.90
2018-04-08T12:25:37.106Z,6.00
2018-04-08T12:28:05.646Z,6.00
2018-04-08T12:30:33.164Z,5.67
2018-04-08T12:33:00.931Z,6.10
2018-04-08T12:35:29.128Z,8.37
2018-04-08T12:37:56.647Z,6.87
2018-04-08T12:40:25.466Z,6.17
2018-04-08T12:42:53.377Z,5.90
2018-04-08T12:45:21.021Z,6.43
2018-04-08T12:47:48.520Z,5.97
2018-04-08T12:50:16.057Z,6.73
2018-04-08T12:52:43.685Z,5.70
2018-04-08T12:55:11.329Z,5.60
2018-04-08T12:57:38.879Z,6.07
2018-04-08T13:00:06.455Z,6.43
2018-04-08T13:02:34.070Z,6.50
2018-04-08T13:05:01.652Z,6.27
2018-04-08T13:07:29.373Z,6.33
2018-04-08T13:09:57.015Z,6.90
2018-04-08T13:12:24.551Z,6.50
2018-04-08T13:14:52.330Z,8.03
2018-04-08T13:17:20.655Z,7.13
2018-04-08T13:19:49.235Z,6.23
2018-04-08T13:22:17.592Z,8.97
2018-04-08T13:24:45.454Z,7.10
2018-04-08T13:27:13.059Z,7.50
2018-04-08T13:29:45.883Z,7.60
2018-04-08T13:32:28.376Z,8.60
2018-04-08T13:34:56.560Z,8.47
2018-04-08T13:37:24.187Z,7.80
2018-04-08T13:39:51.857Z,9.10
2018-04-08T13:42:19.528Z,8.80
2018-04-08T13:44:47.182Z,8.17
2018-04-08T13:47:14.730Z,8.80
2018-04-08T13:49:42.371Z,8.30
2018-04-08T13:52:10.094Z,7.63
2018-04-08T13:54:37.608Z,7.67
2018-04-08T13:57:06.031Z,7.73
2018-04-08T13:59:33.684Z,8.03
2018-04-08T14:02:01.244Z,7.90
2018-04-08T14:04:28.868Z,8.03
2018-04-08T14:06:56.431Z,7.80
2018-04-08T14:09:24.653Z,8.47
2018-04-08T14:11:52.261Z,8.00
2018-04-08T14:14:20.604Z,7.57
2018-04-08T14:16:48.350Z,8.10
2018-04-08T14:19:15.888Z,8.37
2018-04-08T14:21:43.462Z,9.17
2018-04-08T14:24:11.345Z,8.83
2018-04-08T14:26:38.862Z,9.33
2018-04-08T14:29:07.128Z,9.77
2018-04-08T14:31:34.735Z,9.30
2018-04-08T14:34:02.791Z,10.73
2018-04-08T14:36:30.420Z,9.57
2018-04-08T14:38:58.848Z,9.23
2018-04-08T14:41:26.493Z,8.90
2018-04-08T14:43:54.207Z,9.53
2018-04-08T14:46:22.001Z,9.63
2018-04-08T14:48:50.334Z,9.63
2018-04-08T14:51:18.066Z,11.10
2018-04-08T14:53:45.599Z,9.57
2018-04-08T14:56:13.312Z,10.33
2018-04-08T14:58:41.251Z,9.37
2018-04-08T15:01:08.829Z,10.17
2018-04-08T15:03:36.455Z,10.00
2018-04-08T15:06:04.753Z,9.90
2018-04-08T15:08:32.383Z,10.70
2018-04-08T15:10:59.982Z,10.83
2018-04-08T15:13:27.589Z,10.43
2018-04-08T15:15:55.345Z,10.70
2018-04-08T15:18:23.019Z,11.17
2018-04-08T15:20:50.597Z,10.37
2018-04-08T15:23:18.185Z,10.50
2018-04-08T15:25:45.825Z,10.83
2018-04-08T15:28:14.283Z,10.50
2018-04-08T15:30:42.863Z,10.80
2018-04-08T15:33:10.597Z,10.80
2018-04-08T15:35:38.532Z,11.30
2018-04-08T15:38:06.076Z,11.90
2018-04-08T15:40:34.502Z,11.63
2018-04-08T15:43:02.060Z,10.60
2018-04-08T15:45:29.626Z,10.50
2018-04-08T15:47:57.161Z,12.40
2018-04-08T15:50:24.737Z,12.20
2018-04-08T15:52:52.256Z,11.37
2018-04-08T15:55:20.989Z,11.00
2018-04-08T15:57:49.238Z,12.73
2018-04-08T16:00:16.787Z,12.00
2018-04-08T16:02:45.305Z,11.47
2018-04-08T16:05:12.981Z,11.93
2018-04-08T16:07:40.533Z,11.83
2018-04-08T16:10:08.339Z,12.80
2018-04-08T16:12:36.050Z,12.27
2018-04-08T16:15:03.714Z,11.97
2018-04-08T16:17:31.254Z,11.43
2018-04-08T16:19:58.773Z,13.17
2018-04-08T16:22:27.728Z,12.77
2018-04-08T16:24:55.347Z,12.00
2018-04-08T16:27:23.955Z,12.83
2018-04-08T16:29:52.238Z,13.30
2018-04-08T16:32:19.781Z,12.87
2018-04-08T16:34:47.340Z,13.00
2018-04-08T16:37:15.680Z,13.30
2018-04-08T16:39:43.258Z,13.17
2018-04-08T16:42:11.768Z,14.00
2018-04-08T16:44:39.495Z,14.37
2018-04-08T16:47:07.138Z,12.57
2018-04-08T16:49:34.777Z,14.60
2018-04-08T16:52:02.433Z,16.00
2018-04-08T16:54:30.027Z,14.17
2018-04-08T16:56:58.231Z,16.07
2018-04-08T16:59:25.844Z,14.57
2018-04-08T17:01:53.368Z,14.20
2018-04-08T17:04:21.725Z,13.93
2018-04-08T17:06:49.284Z,13.30
2018-04-08T17:09:17.062Z,14.00
2018-04-08T17:11:45.374Z,13.47
2018-04-08T17:14:12.888Z,14.30
2018-04-08T17:16:40.400Z,15.63
2018-04-08T17:19:08.001Z,14.40
2018-04-08T17:21:35.898Z,13.93
2018-04-08T17:24:03.449Z,15.00
2018-04-08T17:26:31.160Z,14.33
2018-04-08T17:28:58.719Z,14.73
2018-04-08T17:31:26.345Z,14.80
2018-04-08T17:33:56.480Z,14.63
2018-04-08T17:36:24.133Z,14.23
2018-04-08T17:38:51.664Z,14.37
2018-04-08T17:41:19.172Z,15.93
2018-04-08T17:43:46.759Z,14.40
2018-04-08T17:46:14.348Z,13.37
2018-04-08T17:48:42.868Z,14.77
2018-04-08T17:51:10.437Z,14.17
2018-04-08T17:53:37.974Z,14.47
2018-04-08T17:56:06.302Z,14.20
2018-04-08T17:58:33.838Z,15.77
2018-04-08T18:01:01.800Z,14.67
2018-04-08T18:03:29.424Z,15.83
2018-04-08T18:05:57.722Z,16.33
2018-04-08T18:08:26.201Z,15.97
2018-04-08T18:10:58.070Z,16.40
2018-04-08T18:13:25.925Z,16.37
2018-04-08T18:15:53.444Z,15.97
2018-04-08T18:18:21.764Z,16.00
2018-04-08T18:20:49.490Z,16.90
2018-04-08T18:23:17.057Z,15.93
2018-04-08T18:25:44.670Z,16.40
2018-04-08T18:28:12.430Z,17.10
2018-04-08T18:30:40.078Z,17.40
2018-04-08T18:33:07.596Z,17.00
2018-04-08T18:35:35.121Z,17.80
2018-04-08T18:38:03.158Z,16.40
2018-04-08T18:40:31.035Z,15.83
2018-04-08T18:42:58.554Z,15.73
2018-04-08T18:45:26.272Z,17.13
2018-04-08T18:47:53.857Z,16.57
2018-04-08T18:50:22.196Z,15.20
2018-04-08T18:52:49.779Z,15.63
2018-04-08T18:55:17.311Z,17.70
2018-04-08T18:57:45.637Z,17.40
2018-04-08T19:00:13.183Z,18.63
2018-04-08T19:02:40.917Z,16.47
2018-04-08T19:05:10.753Z,15.17
2018-04-08T19:07:38.285Z,16.40
2018-04-08T19:10:05.862Z,16.37
2018-04-08T19:12:33.641Z,15.73
2018-04-08T19:15:07.169Z,15.93
2018-04-08T19:17:40.414Z,16.40
2018-04-08T19:20:08.027Z,16.13
2018-04-08T19:22:35.585Z,14.83
2018-04-08T19:25:03.156Z,15.37
2018-04-08T19:27:35.704Z,15.73
2018-04-08T19:30:03.362Z,16.83
2018-04-08T19:32:30.942Z,16.13
2018-04-08T19:34:59.523Z,15.97
2018-04-08T19:37:27.342Z,15.30
2018-04-08T19:39:55.825Z,16.70
2018-04-08T19:42:23.348Z,16.37
2018-04-08T19:44:51.159Z,15.47
2018-04-08T19:47:19.356Z,17.47
2018-04-08T19:49:46.950Z,15.50
2018-04-08T19:52:14.776Z,16.43
2018-04-08T19:54:42.314Z,16.33
2018-04-08T19:57:09.851Z,16.47
2018-04-08T19:59:38.649Z,15.67
2018-04-08T20:02:06.324Z,16.37
2018-04-08T20:04:33.885Z,14.73
2018-04-08T20:07:01.618Z,12.83
2018-04-08T20:09:29.385Z,12.30
2018-04-08T20:11:57.832Z,13.37
2018-04-08T20:14:25.417Z,12.03
2018-04-08T20:16:53.900Z,11.20
2018-04-08T20:19:21.479Z,10.43
2018-04-08T20:21:49.765Z,10.47
2018-04-08T20:24:18.082Z,10.17
2018-04-08T20:26:45.645Z,10.00
2018-04-08T20:29:13.321Z,9.67
2018-04-08T20:31:41.071Z,11.90
2018-04-08T20:34:08.712Z,14.17
2018-04-08T20:36:36.328Z,14.23
2018-04-08T20:39:03.898Z,10.83
2018-04-08T20:41:31.430Z,11.00
2018-04-08T20:43:59.243Z,13.07
2018-04-08T20:46:27.567Z,12.47
2018-04-08T20:48:55.223Z,14.57
2018-04-08T20:51:22.853Z,18.03
2018-04-08T20:53:50.544Z,19.80
2018-04-08T20:56:18.382Z,19.63
2018-04-08T20:58:46.071Z,23.10
2018-04-08T21:01:13.721Z,18.33
2018-04-08T21:03:41.490Z,17.97
2018-04-08T21:06:09.019Z,20.90
2018-04-08T21:08:37.392Z,17.73
2018-04-08T21:11:06.009Z,17.10
2018-04-08T21:13:33.523Z,18.70
2018-04-08T21:16:01.192Z,20.97
2018-04-08T21:18:30.035Z,19.53
2018-04-08T21:20:57.685Z,19.40
2018-04-08T21:23:25.516Z,17.93
2018-04-08T21:25:53.024Z,16.97
2018-04-08T21:28:20.633Z,18.17
2018-04-08T21:30:48.912Z,18.33
2018-04-08T21:33:18.367Z,20.80
2018-04-08T21:35:45.875Z,20.43
2018-04-08T21:38:13.595Z,16.87
2018-04-08T21:40:41.440Z,20.37
2018-04-08T21:43:08.944Z,23.60
2018-04-08T21:45:36.505Z,20.17
2018-04-08T21:48:04.908Z,22.47
2018-04-08T21:50:32.605Z,26.57
2018-04-08T21:53:00.182Z,26.30
2018-04-08T21:55:27.703Z,23.20
2018-04-08T21:57:55.252Z,21.80
2018-04-08T22:00:23.687Z,26.73
2018-04-08T22:02:51.358Z,23.77
2018-04-08T22:05:18.897Z,22.10
2018-04-08T22:07:46.570Z,23.23
2018-04-08T22:10:14.429Z,20.17
2018-04-08T22:12:42.321Z,20.37
2018-04-08T22:15:09.877Z,20.27
2018-04-08T22:17:37.445Z,20.43
2018-04-08T22:20:05.371Z,16.97
2018-04-08T22:22:33.137Z,15.53
2018-04-08T22:25:00.675Z,11.47
2018-04-08T22:27:28.376Z,10.73
2018-04-08T22:29:55.910Z,10.30
2018-04-08T22:32:23.418Z,9.20
2018-04-08T22:34:51.032Z,9.77
2018-04-08T22:37:18.958Z,9.07
2018-04-08T22:39:46.550Z,9.03
2018-04-08T22:42:14.194Z,9.00
2018-04-08T22:44:42.109Z,10.33
2018-04-08T22:47:09.601Z,11.43
2018-04-08T22:49:37.259Z,10.60
2018-04-08T22:52:05.139Z,11.70
2018-04-08T22:54:32.675Z,10.57
2018-04-08T22:57:00.335Z,10.70
2018-04-08T22:59:27.941Z,10.07
2018-04-08T23:01:55.633Z,9.67
2018-04-08T23:04:23.155Z,9.33
2018-04-08T23:06:51.457Z,10.27
2018-04-08T23:09:19.089Z,17.63
2018-04-08T23:11:47.147Z,12.40
2018-04-08T23:14:14.674Z,12.27
2018-04-08T23:16:42.761Z,10.67
2018-04-08T23:19:10.288Z,11.20
2018-04-08T23:21:37.915Z,12.63
2018-04-08T23:24:05.508Z,11.13
2018-04-08T23:26:33.086Z,12.23
2018-04-08T23:29:00.594Z,11.40
2018-04-08T23:31:29.006Z,12.70
2018-04-08T23:33:56.566Z,13.43
2018-04-08T23:36:24.098Z,12.60
2018-04-08T23:38:52.262Z,13.87
2018-04-08T23:41:20.080Z,14.80
2018-04-08T23:43:47.592Z,12.87
2018-04-08T23:46:15.115Z,19.67
2018-04-08T23:48:42.678Z,27.30
2018-04-08T23:51:10.238Z,21.13
2018-04-08T23:53:37.750Z,16.80
2018-04-08T23:56:06.162Z,17.17
2018-04-08T23:58:33.661Z,18.93
